2CUTH ZZZZ-EGBS

Flight info

Callsign 2CUTH
Flight time N/A
Altitude 3500
Route VFR
Aircraft DA62/L-SBDFGRY/S

Departure

Time N/A
Airport ZZZZ

Arrival

Time 2026-04-26 12:32
Airport Shobdon Airfield (EGBS)
Time Latitude Longitude Altitude Speed Heading
2026-04-26 12:13 52.00232 -2.47394 143 ft 0 kts 204°
2026-04-26 12:16 52.00208 -2.47350 141 ft 9 kts 72°
2026-04-26 12:16 52.00250 -2.47199 140 ft 22 kts 67°
2026-04-26 12:16 52.00315 -2.46931 136 ft 20 kts 82°
2026-04-26 12:16 52.00333 -2.46897 135 ft 5 kts 250°
2026-04-26 12:17 52.00330 -2.46908 135 ft 5 kts 243°
2026-04-26 12:17 52.00277 -2.47089 138 ft 31 kts 246°
2026-04-26 12:17 52.00182 -2.47437 140 ft 28 kts 247°
2026-04-26 12:17 52.00125 -2.47657 143 ft 20 kts 244°
2026-04-26 12:18 52.00060 -2.47906 147 ft 22 kts 255°
2026-04-26 12:18 52.00034 -2.47964 148 ft 4 kts 69°
2026-04-26 12:18 52.00035 -2.47960 148 ft 0 kts 65°
2026-04-26 12:19 52.00140 -2.47594 142 ft 69 kts 65°
2026-04-26 12:19 52.00386 -2.46701 295 ft 97 kts 67°
2026-04-26 12:19 52.00700 -2.45659 588 ft 106 kts 53°
2026-04-26 12:19 52.01357 -2.45405 956 ft 107 kts 332°
2026-04-26 12:20 52.01808 -2.46343 1380 ft 108 kts 300°
2026-04-26 12:20 52.02229 -2.47357 1788 ft 109 kts 301°
2026-04-26 12:20 52.02713 -2.48309 2311 ft 110 kts 310°
2026-04-26 12:20 52.03232 -2.49240 2853 ft 112 kts 308°
2026-04-26 12:21 52.03761 -2.50200 3282 ft 124 kts 307°
2026-04-26 12:21 52.04390 -2.51360 3302 ft 150 kts 308°
2026-04-26 12:21 52.05089 -2.52652 3320 ft 155 kts 308°
2026-04-26 12:21 52.05821 -2.53982 3299 ft 160 kts 308°
2026-04-26 12:22 52.06557 -2.55347 3314 ft 159 kts 307°
2026-04-26 12:22 52.07301 -2.56727 3289 ft 161 kts 308°
2026-04-26 12:22 52.08037 -2.58077 3296 ft 159 kts 309°
2026-04-26 12:22 52.08778 -2.59457 3302 ft 163 kts 308°
2026-04-26 12:23 52.09523 -2.60844 3317 ft 163 kts 308°
2026-04-26 12:23 52.10294 -2.62249 3301 ft 168 kts 309°
2026-04-26 12:23 52.11054 -2.63677 3284 ft 164 kts 308°
2026-04-26 12:23 52.11796 -2.65047 3285 ft 161 kts 309°
2026-04-26 12:24 52.12542 -2.66421 3297 ft 161 kts 309°
2026-04-26 12:24 52.13285 -2.67812 3294 ft 166 kts 308°
2026-04-26 12:24 52.14050 -2.69241 3285 ft 165 kts 308°
2026-04-26 12:25 52.15599 -2.72117 3296 ft 169 kts 309°
2026-04-26 12:25 52.16367 -2.73537 3291 ft 164 kts 308°
2026-04-26 12:25 52.17114 -2.74928 3317 ft 163 kts 308°
2026-04-26 12:25 52.17865 -2.76333 3303 ft 163 kts 308°
2026-04-26 12:26 52.18605 -2.77712 3277 ft 163 kts 308°
2026-04-26 12:26 52.19345 -2.79083 3302 ft 162 kts 308°
2026-04-26 12:26 52.20088 -2.80473 3295 ft 163 kts 307°
2026-04-26 12:26 52.20829 -2.81870 3289 ft 162 kts 307°
2026-04-26 12:27 52.21569 -2.83250 3292 ft 161 kts 308°
2026-04-26 12:27 52.22311 -2.84629 3300 ft 163 kts 308°
2026-04-26 12:27 52.23050 -2.86014 3291 ft 160 kts 308°
2026-04-26 12:27 52.23767 -2.87354 3097 ft 148 kts 308°
2026-04-26 12:28 52.24392 -2.88513 2866 ft 129 kts 307°
2026-04-26 12:28 52.25030 -2.89448 2624 ft 125 kts 339°
2026-04-26 12:28 52.25813 -2.89169 2389 ft 116 kts 50°
2026-04-26 12:28 52.25982 -2.87992 2186 ft 109 kts 115°
2026-04-26 12:29 52.25660 -2.87422 2043 ft 102 kts 160°
2026-04-26 12:29 52.24973 -2.87362 1852 ft 98 kts 180°
2026-04-26 12:29 52.23616 -2.87371 1441 ft 101 kts 180°
2026-04-26 12:30 52.22850 -2.87448 1395 ft 116 kts 197°
2026-04-26 12:30 52.22391 -2.88366 1390 ft 106 kts 256°
2026-04-26 12:30 52.22257 -2.89530 1401 ft 107 kts 254°
2026-04-26 12:31 52.22373 -2.91956 1385 ft 121 kts 320°
2026-04-26 12:31 52.23162 -2.92366 1359 ft 122 kts 355°
2026-04-26 12:31 52.23913 -2.92066 1226 ft 102 kts 41°
2026-04-26 12:31 52.24135 -2.91131 895 ft 89 kts 102°
2026-04-26 12:32 52.24051 -2.90162 581 ft 85 kts 89°
2026-04-26 12:32 52.24079 -2.89229 401 ft 80 kts 85°
2026-04-26 12:32 52.24177 -2.88007 318 ft 15 kts 78°
2026-04-26 12:33 52.24240 -2.87971 320 ft 8 kts 358°
2026-04-26 12:33 52.24278 -2.87973 320 ft 4 kts 358°
2026-04-26 12:33 52.24294 -2.87952 319 ft 6 kts 161°
2026-04-26 12:33 52.24291 -2.87951 319 ft 0 kts 174°